Thunder radar more information blitzortung!


Radar de pluja more information rain snow radar


Visita la nostra xarxa de llocs de meteo:

Template documentation
and downloads

And another site



No particular awareness of the weather is required.    There are no Weather-warnings

Pagina Historial Weather Underground text

Diari Resum Novembre 28, 2017 Unitats:  Imperial    Mètric   Tant
« Previous Dia
SegĂźent Dia »
Diari Setmana Mensual Anual Personalitzada
  Maxima: Minima: Media:
Temperatura: TemperatureC °F 1.9 °F 7.9 °F
Punt de rosada: DewpointC °F -5.4 °F -1.9 °F
Humitat: Humidity % 40 % 50 %
Wind Speed: WindSpeedKMH mph 0.0 mph 4.2 mph
RĂ fegues de vent: WindSpeedGustKMH mph - -
Vent:- - South
Pression baro: PressurehPa in 1010.7 in -
Precipitacions: 0.0 in    
Historical Graphs
 
 
Dades de taula per Novembre 28, 2017
Temps Temperatura Punt de rosada Pression baro Vent Wind Speed RĂ fegues de vent Humitat Rainfall Rate (Hourly)
TemperatureC °F DewpointC °F PressurehPa in Calm     Humidity % HourlyPrecipMM in
00:03 4.2 °F -2.4 °F 1023.9 in West 1.9 mph   62 % 0.0 in
00:05 2.2 °F -3.1 °F 1018.8 in Calm   3.2 mph 68 % 0.0 in
00:08 4.2 °F -2.4 °F 1023.9 in Calm     62 % 0.0 in
00:13 4.1 °F -2.6 °F 1023.9 in Calm     62 % 0.0 in
00:15 2.2 °F -3.1 °F 1018.8 in Calm   3.2 mph 68 % 0.0 in
00:25 2.2 °F -3.1 °F 1018.8 in SW 1.6 mph 1.6 mph 68 % 0.0 in
00:35 1.9 °F -3.4 °F 1018.8 in SW 1.6 mph 3.2 mph 68 % 0.0 in
00:45 2.0 °F -3.3 °F 1018.8 in SW 1.6 mph 3.2 mph 68 % 0.0 in
00:55 1.9 °F -3.4 °F 1018.8 in Calm   3.2 mph 68 % 0.0 in
01:05 2.0 °F -3.5 °F 1018.8 in WSW 1.6 mph 3.2 mph 67 % 0.0 in
01:15 1.9 °F -3.4 °F 1018.8 in Calm   3.2 mph 68 % 0.0 in
01:25 1.9 °F -3.4 °F 1018.8 in West 3.2 mph 3.2 mph 68 % 0.0 in
01:35 2.2 °F -3.3 °F 1018.8 in West 1.6 mph 3.2 mph 67 % 0.0 in
01:45 2.2 °F -3.1 °F 1018.8 in Calm   3.2 mph 68 % 0.0 in
01:55 2.0 °F -3.5 °F 1018.8 in West 3.2 mph 3.2 mph 67 % 0.0 in
02:05 2.0 °F -3.5 °F 1018.8 in WNW 1.6 mph 1.6 mph 67 % 0.0 in
02:15 2.1 °F -3.4 °F 1018.8 in NW 1.6 mph 4.8 mph 67 % 0.0 in
02:25 2.1 °F -3.6 °F 1018.8 in WNW 1.6 mph 3.2 mph 66 % 0.0 in
02:35 2.5 °F -3.0 °F 1018.8 in West 1.6 mph 3.2 mph 67 % 0.0 in
02:45 3.0 °F -2.7 °F 1018.8 in West 1.6 mph 6.4 mph 66 % 0.0 in
02:55 3.3 °F -2.7 °F 1018.8 in NW 1.6 mph 4.8 mph 65 % 0.0 in
03:05 3.7 °F -2.5 °F 1018.8 in North 3.2 mph 4.8 mph 64 % 0.0 in
03:15 4.2 °F -2.0 °F 1018.8 in NNE 1.6 mph 4.8 mph 64 % 0.0 in
03:25 4.4 °F -2.1 °F 1018.8 in NNE 3.2 mph 3.2 mph 63 % 0.0 in
03:35 4.7 °F -1.8 °F 1018.8 in NNE 1.6 mph 4.8 mph 63 % 0.0 in
03:45 5.2 °F -1.5 °F 1018.8 in North 3.2 mph 3.2 mph 62 % 0.0 in
03:55 5.4 °F -1.3 °F 1019.9 in North 3.2 mph 6.4 mph 62 % 0.0 in
04:05 5.5 °F -1.4 °F 1018.8 in NE 4.8 mph 4.8 mph 61 % 0.0 in
04:15 5.9 °F -1.1 °F 1018.8 in NE 1.6 mph 4.8 mph 61 % 0.0 in
04:25 6.3 °F -0.9 °F 1018.8 in NNE 1.6 mph 4.8 mph 60 % 0.0 in
04:35 6.8 °F -0.4 °F 1018.8 in NNE 3.2 mph 4.8 mph 60 % 0.0 in
04:45 7.0 °F -0.5 °F 1018.8 in NNE 4.8 mph 4.8 mph 59 % 0.0 in
10:46 7.0 °F -0.7 °F 1018.8 in NNE 5.6 mph 5.6 mph 58 % 0.0 in
10:51 7.2 °F -0.5 °F 1018.8 in ENE 3.7 mph 3.7 mph 58 % 0.0 in
10:56 7.3 °F -0.7 °F 1018.8 in North 7.4 mph 7.4 mph 57 % 0.0 in
11:01 7.3 °F -0.7 °F 1018.8 in NNE 7.4 mph 7.4 mph 57 % 0.0 in
11:06 7.4 °F -0.6 °F 1018.8 in NE 9.3 mph 9.3 mph 57 % 0.0 in
11:11 7.8 °F -0.2 °F 1018.8 in NE 4.7 mph 4.7 mph 57 % 0.0 in
11:24 8.1 °F -0.2 °F 1018.8 in ESE 5.6 mph 5.6 mph 56 % 0.0 in
11:29 8.5 °F 0.2 °F 1018.8 in WNW 7.4 mph 7.4 mph 56 % 0.0 in
11:34 8.6 °F 0.3 °F 1018.8 in NNE 7.4 mph 7.4 mph 56 % 0.0 in
11:40 8.6 °F 0.1 °F 1018.8 in NE 3.2 mph 3.2 mph 55 % 0.0 in
11:57 9.0 °F 0.4 °F 1018.8 in WNW 3.7 mph 3.7 mph 55 % 0.0 in
12:02 9.6 °F 0.7 °F 1017.8 in ENE 2.6 mph 2.6 mph 54 % 0.0 in
12:07 9.4 °F 0.3 °F 1017.8 in ENE 7.4 mph 7.4 mph 53 % 0.0 in
12:28 9.6 °F 0.7 °F 1017.8 in NNE 7.4 mph 7.4 mph 54 % 0.0 in
12:33 9.9 °F 0.8 °F 1016.8 in NE 5.6 mph 5.6 mph 53 % 0.0 in
12:39 10.2 °F 1.1 °F 1016.8 in NNE 5.6 mph 5.6 mph 53 % 0.0 in
12:44 10.2 °F 1.1 °F 1016.8 in ENE 5.6 mph 5.6 mph 53 % 0.0 in
12:49 10.5 °F 1.3 °F 1015.8 in ESE 3.7 mph 3.7 mph 53 % 0.0 in
12:54 11.1 °F 1.6 °F 1015.8 in ESE 3.7 mph 3.7 mph 52 % 0.0 in
12:59 11.5 °F 2.0 °F 1015.8 in SSW 3.7 mph 3.7 mph 52 % 0.0 in
13:04 11.9 °F 2.3 °F 1015.8 in ESE 3.7 mph 3.7 mph 52 % 0.0 in
13:09 12.6 °F 2.7 °F 1015.8 in SE 5.3 mph 5.3 mph 51 % 0.0 in
13:19 11.8 °F 2.0 °F 1014.8 in East 7.4 mph 7.4 mph 51 % 0.0 in
13:24 11.9 °F 2.1 °F 1014.8 in NW 3.9 mph 3.9 mph 51 % 0.0 in
13:29 12.3 °F 2.4 °F 1014.8 in West 5.6 mph 5.6 mph 51 % 0.0 in
13:34 12.7 °F 2.8 °F 1014.8 in WNW 9.3 mph 9.3 mph 51 % 0.0 in
13:39 12.9 °F 2.7 °F 1014.8 in West 18.5 mph 18.5 mph 50 % 0.0 in
13:44 13.0 °F 2.5 °F 1014.8 in WNW 16.7 mph 16.7 mph 49 % 0.0 in
13:49 13.0 °F 2.5 °F 1014.8 in SW 11.1 mph 11.1 mph 49 % 0.0 in
13:50 13.1 °F 2.3 °F 1014.8 in WSW 11.1 mph 11.1 mph 48 % 0.0 in
13:55 13.0 °F 1.6 °F 1014.8 in WSW 20.4 mph 20.4 mph 46 % 0.0 in
14:00 12.8 °F 1.2 °F 1014.8 in West 17.2 mph 17.2 mph 45 % 0.0 in
14:05 12.8 °F 0.8 °F 1014.8 in WSW 18.5 mph 18.5 mph 44 % 0.0 in
14:10 12.8 °F 0.2 °F 1014.8 in West 14.8 mph 14.8 mph 42 % 0.0 in
14:15 12.9 °F 0.6 °F 1014.8 in West 13.0 mph 13.0 mph 43 % 0.0 in
14:20 12.8 °F 0.2 °F 1014.8 in NW 16.7 mph 16.7 mph 42 % 0.0 in
14:25 12.9 °F -0.1 °F 1014.8 in WNW 14.8 mph 14.8 mph 41 % 0.0 in
14:35 12.9 °F -0.1 °F 1014.8 in West 5.6 mph 5.6 mph 41 % 0.0 in
14:50 12.8 °F -0.2 °F 1013.8 in West 5.6 mph 5.6 mph 41 % 0.0 in
14:55 12.8 °F -0.2 °F 1013.8 in WNW 5.6 mph 5.6 mph 41 % 0.0 in
15:00 12.8 °F -0.2 °F 1013.8 in East 9.3 mph 9.3 mph 41 % 0.0 in
15:05 12.8 °F -0.2 °F 1013.8 in NW 5.6 mph 5.6 mph 41 % 0.0 in
15:10 12.8 °F -0.2 °F 1013.8 in SW 5.6 mph 5.6 mph 41 % 0.0 in
15:15 12.8 °F -0.2 °F 1013.8 in WNW 7.9 mph 7.9 mph 41 % 0.0 in
15:25 12.8 °F -0.2 °F 1013.8 in West 3.7 mph 3.7 mph 41 % 0.0 in
15:30 12.6 °F -0.3 °F 1012.8 in North 7.4 mph 7.4 mph 41 % 0.0 in
15:45 12.4 °F -0.5 °F 1013.8 in WSW 7.4 mph 7.4 mph 41 % 0.0 in
15:55 12.7 °F -0.2 °F 1013.8 in NW 9.3 mph 9.3 mph 41 % 0.0 in
16:00 12.8 °F -0.2 °F 1013.8 in WSW 1.9 mph 2.3 mph 41 % 0.0 in
16:05 12.7 °F -0.2 °F 1013.8 in WNW 3.5 mph 3.5 mph 41 % 0.0 in
16:10 12.6 °F -0.3 °F 1013.8 in WSW 3.7 mph 3.7 mph 41 % 0.0 in
16:15 12.9 °F -0.1 °F 1013.8 in WSW 5.6 mph 5.6 mph 41 % 0.0 in
16:20 12.9 °F -0.1 °F 1013.8 in SW 1.9 mph 1.9 mph 41 % 0.0 in
16:25 12.6 °F -0.3 °F 1013.8 in North 1.9 mph 1.9 mph 41 % 0.0 in
16:35 12.5 °F -0.8 °F 1013.8 in NNW 2.6 mph 2.6 mph 40 % 0.0 in
16:40 12.4 °F -0.8 °F 1013.8 in SW 3.7 mph 3.7 mph 40 % 0.0 in
16:45 12.3 °F -0.9 °F 1013.8 in WNW 1.9 mph 1.9 mph 40 % 0.0 in
16:50 12.3 °F -0.6 °F 1013.8 in SSW 5.6 mph 5.6 mph 41 % 0.0 in
16:55 12.1 °F -0.8 °F 1013.8 in West 5.6 mph 5.6 mph 41 % 0.0 in
17:00 11.7 °F -1.4 °F 1012.8 in SW 5.6 mph 5.6 mph 40 % 0.0 in
17:05 11.6 °F -1.6 °F 1012.8 in WSW 3.7 mph 3.7 mph 40 % 0.0 in
17:10 11.4 °F -1.7 °F 1012.8 in SW 3.5 mph   40 % 0.0 in
17:15 11.0 °F -2.1 °F 1012.8 in Calm     40 % 0.0 in
17:20 10.7 °F -2.4 °F 1012.8 in SW 2.6 mph   40 % 0.0 in
17:30 10.2 °F -2.8 °F 1012.8 in Calm     40 % 0.0 in
17:35 9.9 °F -3.1 °F 1012.8 in Calm     40 % 0.0 in
17:40 9.6 °F -3.3 °F 1012.8 in WNW 3.7 mph 3.7 mph 40 % 0.0 in
17:50 9.4 °F -3.2 °F 1012.8 in SSW 3.9 mph 3.9 mph 41 % 0.0 in
17:55 9.3 °F -3.3 °F 1012.8 in NW 3.7 mph 3.7 mph 41 % 0.0 in
18:10 9.2 °F -3.4 °F 1012.8 in WSW 3.7 mph   41 % 0.0 in
18:15 9.1 °F -3.5 °F 1012.8 in NW 2.6 mph   41 % 0.0 in
18:20 9.0 °F -3.6 °F 1012.8 in SW 1.9 mph   41 % 0.0 in
18:25 9.0 °F -3.6 °F 1012.8 in WSW 3.7 mph 3.7 mph 41 % 0.0 in
18:30 8.9 °F -3.7 °F 1012.8 in ESE 3.9 mph   41 % 0.0 in
18:36 8.8 °F -3.8 °F 1012.8 in Calm     41 % 0.0 in
18:40 8.8 °F -3.4 °F 1012.8 in WNW 3.7 mph 3.7 mph 42 % 0.0 in
18:45 8.7 °F -3.5 °F 1011.7 in NW 4.7 mph 4.7 mph 42 % 0.0 in
18:48 8.6 °F -3.6 °F 1011.7 in WSW 5.6 mph 5.6 mph 42 % 0.0 in
18:53 8.6 °F -3.6 °F 1011.7 in WSW 3.9 mph 3.9 mph 42 % 0.0 in
19:03 8.3 °F -3.6 °F 1011.7 in West 3.7 mph 3.7 mph 43 % 0.0 in
19:08 8.2 °F -3.7 °F 1011.7 in West 1.9 mph   43 % 0.0 in
19:13 8.1 °F -3.7 °F 1011.7 in SSE 1.9 mph   43 % 0.0 in
19:18 7.9 °F -3.9 °F 1012.8 in WSW 3.7 mph 3.7 mph 43 % 0.0 in
19:23 7.8 °F -3.7 °F 1012.8 in West 3.9 mph 3.9 mph 44 % 0.0 in
19:33 7.6 °F -3.9 °F 1012.8 in SW 5.6 mph 5.6 mph 44 % 0.0 in
19:43 7.1 °F -4.1 °F 1012.8 in SW 1.9 mph   45 % 0.0 in
19:48 6.8 °F -4.3 °F 1011.7 in Calm     45 % 0.0 in
19:53 6.6 °F -4.5 °F 1011.7 in Calm     45 % 0.0 in
19:58 6.5 °F -4.3 °F 1011.7 in NNE 3.7 mph 3.7 mph 46 % 0.0 in
20:03 6.5 °F -4.3 °F 1011.7 in North 1.9 mph 1.9 mph 46 % 0.0 in
20:08 6.6 °F -4.2 °F 1011.7 in Calm     46 % 0.0 in
20:13 6.8 °F -3.7 °F 1011.7 in West 3.7 mph 3.7 mph 47 % 0.0 in
20:18 6.9 °F -3.7 °F 1011.7 in West 3.2 mph 3.2 mph 47 % 0.0 in
20:23 6.9 °F -3.7 °F 1011.7 in Calm     47 % 0.0 in
20:33 6.5 °F -3.7 °F 1011.7 in NE 1.9 mph   48 % 0.0 in
20:38 6.4 °F -3.8 °F 1011.7 in NNE 3.7 mph 3.7 mph 48 % 0.0 in
20:43 6.2 °F -4.0 °F 1011.7 in NNE 3.7 mph 3.7 mph 48 % 0.0 in
20:48 6.2 °F -4.0 °F 1011.7 in NNE 3.7 mph 3.7 mph 48 % 0.0 in
20:58 6.0 °F -3.9 °F 1011.7 in Calm     49 % 0.0 in
21:03 6.1 °F -3.8 °F 1012.8 in NNE 2.3 mph   49 % 0.0 in
21:08 6.0 °F -3.9 °F 1012.8 in ENE 2.6 mph 2.6 mph 49 % 0.0 in
21:13 6.0 °F -3.7 °F 1012.8 in NNE 3.7 mph 3.7 mph 50 % 0.0 in
21:18 6.0 °F -3.7 °F 1011.7 in NE 3.7 mph 3.7 mph 50 % 0.0 in
21:28 6.0 °F -3.7 °F 1011.7 in North 3.7 mph 3.7 mph 50 % 0.0 in
21:33 5.9 °F -3.7 °F 1011.7 in North 1.9 mph   50 % 0.0 in
21:38 6.0 °F -3.7 °F 1011.7 in WNW 2.3 mph 2.3 mph 50 % 0.0 in
21:43 6.0 °F -3.7 °F 1011.7 in WNW 1.9 mph 1.9 mph 50 % 0.0 in
21:48 5.8 °F -3.8 °F 1011.7 in Calm     50 % 0.0 in
21:53 5.7 °F -3.9 °F 1011.7 in WNW 2.6 mph 2.6 mph 50 % 0.0 in
22:03 5.4 °F -3.9 °F 1011.7 in West 1.9 mph   51 % 0.0 in
22:08 5.3 °F -4.1 °F 1011.7 in Calm     51 % 0.0 in
22:18 5.4 °F -3.9 °F 1011.7 in NNE 3.7 mph 3.7 mph 51 % 0.0 in
22:23 5.3 °F -4.1 °F 1011.7 in East 2.3 mph   51 % 0.0 in
22:28 5.0 °F -4.1 °F 1011.7 in SSE 4.7 mph 4.7 mph 52 % 0.0 in
22:38 4.8 °F -4.2 °F 1011.7 in NNE 3.7 mph 3.7 mph 52 % 0.0 in
22:53 4.6 °F -4.4 °F 1011.7 in NNE 2.3 mph 2.3 mph 52 % 0.0 in
22:54 4.6 °F -4.4 °F 1011.7 in NNE 2.3 mph 2.3 mph 52 % 0.0 in
23:04 4.3 °F -4.4 °F 1010.7 in North 1.9 mph 1.9 mph 53 % 0.0 in
23:09 4.3 °F -4.4 °F 1010.7 in WSW 2.6 mph   53 % 0.0 in
23:19 3.5 °F -5.4 °F 1010.7 in SW 3.7 mph 3.7 mph 52 % 0.0 in
23:24 3.6 °F -5.1 °F 1010.7 in SW 3.7 mph 3.7 mph 53 % 0.0 in
23:29 3.6 °F -5.1 °F 1010.7 in SW 1.9 mph   53 % 0.0 in
23:39 3.5 °F -5.2 °F 1010.7 in SW 3.7 mph 3.7 mph 53 % 0.0 in
23:49 3.4 °F -5.1 °F 1010.7 in WNW 1.9 mph   54 % 0.0 in
23:54 3.4 °F -5.1 °F 1010.7 in WNW 2.3 mph 2.6 mph 54 % 0.0 in
23:59 3.4 °F -5.1 °F 1010.7 in WSW 3.9 mph 3.9 mph 54 % 0.0 in
Meteo Sesrovires
Elogis d' Weather Underground - 1.5 mb

Guio original per  Jim McMurry - jmcmurry@mwt.net Adaptat per a la plantilla per  Wim van der Kuil - Leuven-Template.eu

Trobareu la nostra informacio del temps tambe a:

Weather Underground

AWEKAS